Terminal Aerodrome Forecast
Issued by NWS San Angelo, TX

Home | Current Version | Previous Version | Text Only | Print | Product List | Glossary On
Versions: 1 2 3 4 5 6 7 8 9 10 11 12 13 14 15 16 17 18 19 20 21 22
000
FTUS44 KSJT 070500
TAFSJT
TAF
KSJT 070537Z 0706/0806 17011G19KT P6SM SCT020
     FM070700 17011G19KT P6SM BKN015
      TEMPO 0710/0714 BKN008
     FM071600 17014G20KT P6SM BKN025
     FM071900 19013G21KT P6SM SCT050
     FM080100 15011KT P6SM SCT050 BKN200=

USA.gov is the U.S. government's official web portal to all federal, state and local government web resources and services.